Tuesday, May 03, 2016
12:32 UTC
  |  Log In   |  Register Free
Airport Search:

Jackson-Medgar Wiley Evers International Airport
(KJAN)

FAA data valid effective Mar 31 2016 - May 26 2016 (unless otherwise noted).

 
 
 
 
 
 
 
 
 
 
 
 
 
 
Current Aviation Weather for KJAN

Weather Summary


The most recent METAR observation for JAN was updated at: 13:03 UTC
METAR for KJAN is not available. Closest METAR is for KMBO
KJAN  (most recent observation was updatred at 31:15 UTC)
031154Z 33004KT 10SM OVC015 17/16 A2997 RMK AO2 SLP147 60000 70040 T01720156 10178 20172 53005

KMBO  (7.8 nm SE)   (most recent observation was updated at 31:21 UTC)
031215Z AUTO 34004KT 10SM BKN006 BKN013 OVC021 16/15 A2998 RMK AO2 PWINO

KJVW  (16.9 nm NE)   (most recent observation was updated at 31:21 UTC)
031215Z AUTO 34005KT 5SM HZ SCT007 SCT018 BKN024 17/14 A2999 RMK AO2

TAF for KJAN is not available.
KJAN
031120Z 0312/0412 36004KT P6SM SCT015 BKN020 OVC035 FM031600 35005KT P6SM SCT015 OVC025 FM032100 34008KT P6SM OVC050 FM041000 31006KT P6SM SCT250

KHKS  (7.6 nm SE)   (most recent observation was updatred at 31:12 UTC)
031120Z 0312/0412 33004KT P6SM SCT010 BKN018 OVC030 FM031600 35006KT P6SM SCT015 OVC025 FM032000 34008KT P6SM OVC050 FM041000 31006KT P6SM SCT250
GlobalAir.com is loading additional information.
 Current Weather at JAN
63.0 F° (17.2 C°)

Northwest winds at 3.5 mph
Pressure:
29.97 in
Humidity:
90%
Wind:
Northwest at 3.5 mph
Dew Point:
60.1 F° (15.6 C°)
Visibility:
10.00 mi
JAN NOAA Radar




Find All Airport Services Find A Hotel Find A Rental Car Find A Golf Course Find A Restaurant $100 Hamburger



Airport Weather Forecast for KJAN

Translated METAR for KJAN (1154 UTC)
METAR:
KJAN 031154Z 33004KT 10SM OVC015 17/16 A2997 RMK AO2 SLP147 60000 70040 T01720156 10178 20172 53005
Conditions at:
KJAN (Jackson-Medgar Wiley Evers Intl, MS) observed 1154 UTC 03 May 2016
Temperature:
17°C (62.6°F)
Dewpoint:
16°C (60.8°F) [RH = 93.8]
Pressure:
29.97 inches Hg (1014.9 mb)
pressure at sea level is 147 in Hg
Winds:
from the NNW (330 degrees) at 4.6 mph (4 knots: 2.1 m/s)
Visibility:
10 mile(s)
Ceiling:
1,500 feet AGL
Clouds:
Overcast Skies at 1,500 feet AGL
Remarks:
site is automated and HAS a precipitation sensor

Translated TAF for KJAN (Jackson-Medgar Wiley Evers Intl, MS) (1120 UTC)
TAF text:
KJAN 031120Z 0312/0412 36004KT P6SM SCT015 BKN020 OVC035
Forecast period:
Tuesday May 03 2016 12:00 UTC - Wednesday May 04 2016 12:00 UTC
Forecast type:
FROM: standard forecast or significant change
Winds:
from the N (360 degrees) at 4.6 mph (4 knots: 2.1 m/s)
Visibility:
6 or more mile(s) (9.7+ km)
Ceiling:
2,000 feet AGL
Clouds:
Scattered Clouds at 1,500 feet AGL
Broken Cloud Cover at 2,000 feet AGL
Overcast Skies at 3,500 feet AGL
Weather:
no significant weather observed at this time
TAF text:
FM031600 35005KT P6SM SCT015 OVC025
Forecast period:
Tuesday May 03 2016 16:00 UTC - Tuesday May 03 2016 21:00 UTC
Forecast type:
FROM: standard forecast or significant change
Winds:
from the N (350 degrees) at 5.8 mph (5 knots: 2.6 m/s)
Visibility:
6 or more mile(s) (9.7+ km)
Ceiling:
2,500 feet AGL
Clouds:
Scattered Clouds at 1,500 feet AGL
Overcast Skies at 2,500 feet AGL
Weather:
no significant weather observed at this time
TAF text:
FM032100 34008KT P6SM OVC050
Forecast period:
Tuesday May 03 2016 21:00 UTC - Wednesday May 04 2016 10:00 UTC
Forecast type:
FROM: standard forecast or significant change
Winds:
from the NNW (340 degrees) at 9.2 mph (8 knots: 4.1 m/s)
Visibility:
6 or more mile(s) (9.7+ km)
Ceiling:
5,000 feet AGL
Clouds:
Overcast Skies at 5,000 feet AGL
Weather:
no significant weather observed at this time
TAF text:
FM041000 31006KT P6SM SCT250
Forecast period:
Wednesday May 04 2016 10:00 UTC - Wednesday May 04 2016 12:00 UTC
Forecast type:
FROM: standard forecast or significant change
Winds:
from the NW (310 degrees) at 6.9 mph (6 knots: 3.1 m/s)
Visibility:
6 or more mile(s) (9.7+ km)
Ceiling:
at least 12,000 feet AGL
Clouds:
Scattered Clouds at 25,000 feet AGL
Weather:
no significant weather observed at this time
FBO's on the Field
FBO Company Facility Photos Services Transportation Aviation Fuel Prices: Prices include tax
Catering Weather Repair Courtesy Rental Type 100LL JetA JetA+ MOGAS 8087
 
Atlantic Aviation - JAN

Currently rated 5 by 1 person
FS:Independent
Last Updated: May-03
Login to update fuel prices
SS:
Contact Atlantic Aviation - JANMore FBO Information
 
Add another FBO Facility Photos Catering Weather Repair Courtesy Rental Type 100LL JetA JetA+ MOGAS 8087
Services Transportation Aviation Fuel Prices: Prices include tax


model-print
model-print
model-print
model-print